KMOB/MOB METAR and TAF weather

Enter ICAO airport designator
Station Type Date Time Source
KMOB METAR 2020/01/26 03:56 UTC NOAA

KMOB 260356Z 00000KT 10SM CLR 08/06 A3018 RMK AO2 SLP218 T00830056


Station Type Date Time Source
KMOB Decoded METAR 2020/01/26 03:56 UTC NOAA

MOBILE REGIONAL AIRPORT, AL, United States (KMOB) 30-41N 88-14W 67M
Jan 25, 2020 - 10:56 PM EST / 2020.01.26 0356 UTC
Wind: Calm:0
Visibility: 10 mile(s):0
Sky conditions: clear
Temperature: 46.9 F (8.3 C)
Dew Point: 42.1 F (5.6 C)
Relative Humidity: 83%
Pressure (altimeter): 30.18 in. Hg (1022 hPa)
ob: KMOB 260356Z 00000KT 10SM CLR 08/06 A3018 RMK AO2 SLP218 T00830056
cycle: 4

Station Type Date Time Source
KMOB TAF 2020/01/25 18:27 UTC NOAA

TAF KMOB 251723Z 2518/2618 31005KT P6SM FEW250
FM260200 28004KT P6SM SCT250
FM260900 VRB03KT P6SM SCT025 BKN120 PROB30 2612/2616 4SM -SHRA OVC025
FM261600 VRB03KT P6SM OVC050 PROB30 2616/2618 4SM -SHRA OVC025

Example: see airport list